KPWT

Bremerton National Airport

Bremerton, Washington, USA
KPWT 161732Z 1618/1718 04004KT P6SM FEW200 FM170900 21006KT P6SM SKC
Issued Valid From Valid To
Jul-16 @ 17:32 UTC
(3 hours ago)
Jul-16 @ 18:00 UTC
(2 hours ago)
Jul-17 @ 18:00 UTC
(in 22 hours)
Jul-16 @ 18:00 to Jul-17 @ 09:00
KPWT 161732Z 1618/1718 04004KT P6SM FEW200
Wind Visibility Clouds
40° at 4 knots Greater than 6 miles
  • Few at 20,000' AGL
From Jul-17 @ 09:00 to Jul-17 @ 18:00
FM170900 21006KT P6SM SKC
Wind Visibility Clouds
210° at 6 knots Greater than 6 miles
  • Clear skies
KPWT 161732Z 1618/1718 04004KT P6SM FEW200 FM170900 21006KT P6SM SKC
Issued Jul-16 @ 17:32 UTC
(3 hours ago)
Valid From Jul-16 @ 18:00 UTC
(2 hours ago)
Valid To Jul-17 @ 18:00 UTC
(in 22 hours)
Jul-16 @ 18:00 - Jul-17 @ 09:00
Wind Visibility
40° at 4 knots Greater than 6 miles
Clouds
  • Few at 20,000' AGL
From Jul-17 @ 09:00 - Jul-17 @ 18:00
Wind Visibility
210° at 6 knots Greater than 6 miles
Clouds
  • Clear skies